createdAt,value
2019-04-30T00:01:37.870Z,11.42
2019-04-30T00:04:40.504Z,11.13
2019-04-30T00:07:14.706Z,11.10
2019-04-30T00:09:41.990Z,11.46
2019-04-30T00:12:11.640Z,11.36
2019-04-30T00:14:41.409Z,11.08
2019-04-30T00:17:15.849Z,10.71
2019-04-30T00:19:42.464Z,10.79
2019-04-30T00:22:11.896Z,10.94
2019-04-30T00:24:46.782Z,10.99
2019-04-30T00:27:12.395Z,10.70
2019-04-30T00:29:41.734Z,11.46
2019-04-30T00:32:11.124Z,11.05
2019-04-30T00:34:40.620Z,11.10
2019-04-30T00:37:13.998Z,10.97
2019-04-30T00:39:44.339Z,11.07
2019-04-30T00:42:12.343Z,10.73
2019-04-30T00:44:41.725Z,10.96
2019-04-30T00:47:11.103Z,10.82
2019-04-30T00:49:40.460Z,11.02
2019-04-30T00:52:09.850Z,10.68
2019-04-30T00:54:39.277Z,10.82
2019-04-30T00:57:08.639Z,10.86
2019-04-30T00:59:39.872Z,10.88
2019-04-30T01:02:43.193Z,11.03
2019-04-30T01:05:15.733Z,10.94
2019-04-30T01:07:48.776Z,10.86
2019-04-30T01:10:19.652Z,10.83
2019-04-30T01:12:50.320Z,10.83
2019-04-30T01:15:19.025Z,11.10
2019-04-30T01:17:50.994Z,10.76
2019-04-30T01:20:24.206Z,10.54
2019-04-30T01:22:51.586Z,10.66
2019-04-30T01:25:20.947Z,10.82
2019-04-30T01:27:50.407Z,10.81
2019-04-30T01:30:22.744Z,11.23
2019-04-30T01:32:56.786Z,11.50
2019-04-30T01:35:23.904Z,10.77
2019-04-30T01:37:53.252Z,10.84
2019-04-30T01:40:22.591Z,11.15
2019-04-30T01:42:52.024Z,11.12
2019-04-30T01:45:23.199Z,11.43
2019-04-30T01:47:52.511Z,11.22
2019-04-30T01:50:21.865Z,11.24
2019-04-30T01:52:54.312Z,10.77
2019-04-30T01:55:52.594Z,10.99
2019-04-30T01:58:30.007Z,10.63
2019-04-30T02:01:02.015Z,10.67
2019-04-30T02:03:31.378Z,11.07
2019-04-30T02:06:00.728Z,10.96
2019-04-30T02:08:30.397Z,11.20
2019-04-30T02:10:59.773Z,10.84
2019-04-30T02:13:34.212Z,10.93
2019-04-30T02:16:00.257Z,11.07
2019-04-30T02:18:29.796Z,10.82
2019-04-30T02:20:59.622Z,10.83
2019-04-30T02:23:29.660Z,10.93
2019-04-30T02:25:59.377Z,10.85
2019-04-30T02:28:29.106Z,11.01
2019-04-30T02:31:00.330Z,11.01
2019-04-30T02:33:31.400Z,10.81
2019-04-30T02:36:26.007Z,11.19
2019-04-30T02:38:56.227Z,11.04
2019-04-30T02:41:26.060Z,10.98
2019-04-30T02:43:56.577Z,11.06
2019-04-30T02:46:31.949Z,10.88
2019-04-30T02:48:59.785Z,10.96
2019-04-30T02:51:30.340Z,11.13
2019-04-30T02:54:13.058Z,10.81
2019-04-30T02:56:44.281Z,10.94
2019-04-30T02:59:13.740Z,11.01
2019-04-30T03:01:43.199Z,11.05
2019-04-30T03:04:12.543Z,11.16
2019-04-30T03:06:41.983Z,11.33
2019-04-30T03:09:11.410Z,11.04
2019-04-30T03:11:41.161Z,11.45
2019-04-30T03:14:11.048Z,11.23
2019-04-30T03:17:06.433Z,11.42
2019-04-30T03:19:53.216Z,11.11
2019-04-30T03:22:25.093Z,11.30
2019-04-30T03:24:54.497Z,11.14
2019-04-30T03:27:24.826Z,11.53
2019-04-30T03:29:54.427Z,11.30
2019-04-30T03:32:23.795Z,11.14
2019-04-30T03:34:53.165Z,11.46
2019-04-30T03:37:22.531Z,11.24
2019-04-30T03:39:51.891Z,11.02
2019-04-30T03:42:21.240Z,11.17
2019-04-30T03:44:50.623Z,11.19
2019-04-30T03:47:20.402Z,11.12
2019-04-30T03:49:50.104Z,11.56
2019-04-30T03:52:19.912Z,11.09
2019-04-30T03:54:49.549Z,11.07
2019-04-30T03:57:20.575Z,10.93
2019-04-30T03:59:50.254Z,11.24
2019-04-30T04:02:37.254Z,11.16
2019-04-30T04:05:29.919Z,11.07
2019-04-30T04:08:21.280Z,11.50
2019-04-30T04:10:54.779Z,11.20
2019-04-30T04:13:24.131Z,11.32
2019-04-30T04:15:53.503Z,11.29
2019-04-30T04:18:22.912Z,11.25
2019-04-30T04:21:07.520Z,11.39
2019-04-30T04:23:23.347Z,11.97
2019-04-30T04:25:52.784Z,12.19
2019-04-30T04:28:22.152Z,11.96
2019-04-30T04:30:51.552Z,11.98
2019-04-30T04:33:20.924Z,11.95
2019-04-30T04:35:50.280Z,11.96
2019-04-30T04:38:20.345Z,11.93
2019-04-30T04:40:50.417Z,11.96
2019-04-30T04:43:20.330Z,12.00
2019-04-30T04:45:50.207Z,12.31
2019-04-30T04:48:22.984Z,12.47
2019-04-30T04:50:50.734Z,12.44
2019-04-30T04:53:20.217Z,12.35
2019-04-30T04:55:50.064Z,12.40
2019-04-30T05:00:49.692Z,11.93
2019-04-30T05:03:24.486Z,11.85
2019-04-30T05:05:53.848Z,11.75
2019-04-30T05:08:23.286Z,12.15
2019-04-30T05:10:52.670Z,12.41
2019-04-30T05:13:22.044Z,12.56
2019-04-30T05:15:51.702Z,12.57
2019-04-30T05:18:22.723Z,12.71
2019-04-30T05:20:52.314Z,12.85
2019-04-30T05:23:22.020Z,13.06
2019-04-30T05:25:51.703Z,13.10
2019-04-30T05:28:21.157Z,13.38
2019-04-30T05:30:50.524Z,13.26
2019-04-30T05:33:19.879Z,13.47
2019-04-30T05:35:49.635Z,13.51
2019-04-30T05:38:19.092Z,13.70
2019-04-30T05:40:49.604Z,13.94
2019-04-30T05:43:19.318Z,13.92
2019-04-30T05:45:49.204Z,13.72
2019-04-30T05:48:18.792Z,13.64
2019-04-30T05:50:51.529Z,13.89
2019-04-30T05:53:19.287Z,13.93
2019-04-30T05:55:49.352Z,13.72
2019-04-30T05:58:19.715Z,13.98
2019-04-30T06:00:49.947Z,13.91
2019-04-30T06:03:27.749Z,13.84
2019-04-30T06:05:50.695Z,13.75
2019-04-30T06:08:22.369Z,14.03
2019-04-30T06:10:59.631Z,13.85
2019-04-30T06:13:38.381Z,14.08
2019-04-30T06:16:11.020Z,13.99
2019-04-30T06:18:42.220Z,14.36
2019-04-30T06:21:11.792Z,14.38
2019-04-30T06:23:41.238Z,14.37
2019-04-30T06:26:13.206Z,14.42
2019-04-30T06:28:42.012Z,14.46
2019-04-30T06:31:11.477Z,14.46
2019-04-30T06:33:41.209Z,14.38
2019-04-30T06:36:11.650Z,14.32
2019-04-30T06:38:41.109Z,14.48
2019-04-30T06:41:10.487Z,14.52
2019-04-30T06:43:40.148Z,14.65
2019-04-30T06:46:09.596Z,14.62
2019-04-30T06:48:39.267Z,14.51
2019-04-30T06:51:10.302Z,14.55
2019-04-30T06:53:39.708Z,14.59
2019-04-30T06:56:09.043Z,14.62
2019-04-30T06:58:38.850Z,14.59
2019-04-30T07:01:09.687Z,14.59
2019-04-30T07:03:39.099Z,14.66
2019-04-30T07:06:08.497Z,14.55
2019-04-30T07:08:55.700Z,14.52
2019-04-30T07:11:34.823Z,14.68
2019-04-30T07:14:04.367Z,14.74
2019-04-30T07:16:33.718Z,14.86
2019-04-30T07:19:03.128Z,14.85
2019-04-30T07:21:36.381Z,14.79
2019-04-30T07:24:03.704Z,14.52
2019-04-30T07:26:33.071Z,14.60
2019-04-30T07:29:02.731Z,14.57
2019-04-30T07:31:32.112Z,14.70
2019-04-30T07:34:01.553Z,14.66
2019-04-30T07:36:45.921Z,14.71
2019-04-30T07:39:02.060Z,14.55
2019-04-30T07:41:31.447Z,14.70
2019-04-30T07:44:00.888Z,14.48
2019-04-30T07:46:35.270Z,14.51
2019-04-30T07:49:01.299Z,14.61
2019-04-30T07:51:33.424Z,14.51
2019-04-30T07:54:02.118Z,14.49
2019-04-30T07:56:37.184Z,14.45
2019-04-30T07:59:02.897Z,14.55
2019-04-30T08:01:32.324Z,14.60
2019-04-30T08:04:15.067Z,14.67
2019-04-30T08:06:44.490Z,14.67
2019-04-30T08:09:13.900Z,14.75
2019-04-30T08:11:43.830Z,14.92
2019-04-30T08:14:13.290Z,14.86
2019-04-30T08:16:42.908Z,14.89
2019-04-30T08:19:12.288Z,14.83
2019-04-30T08:21:41.778Z,15.00
2019-04-30T08:24:11.271Z,15.01
2019-04-30T08:26:40.661Z,15.06
2019-04-30T08:29:09.988Z,15.03
2019-04-30T08:31:40.909Z,15.07
2019-04-30T08:34:10.969Z,15.12
2019-04-30T08:36:40.440Z,15.21
2019-04-30T08:39:09.889Z,15.26
2019-04-30T08:41:39.358Z,15.25
2019-04-30T08:44:09.397Z,15.29
2019-04-30T08:46:38.892Z,15.40
2019-04-30T08:49:09.822Z,15.36
2019-04-30T08:51:39.997Z,15.37
2019-04-30T08:54:09.800Z,15.43
2019-04-30T08:56:39.166Z,15.42
2019-04-30T08:59:11.110Z,15.43
2019-04-30T09:01:39.787Z,15.43
2019-04-30T09:04:10.505Z,15.44
2019-04-30T09:06:40.186Z,15.41
2019-04-30T09:09:29.568Z,15.44
2019-04-30T09:11:59.333Z,15.48
2019-04-30T09:14:29.687Z,15.49
2019-04-30T09:16:59.659Z,15.47
2019-04-30T09:19:29.777Z,15.53
2019-04-30T09:21:59.520Z,15.55
2019-04-30T09:24:30.961Z,15.60
2019-04-30T09:27:00.039Z,15.62
2019-04-30T09:29:29.433Z,15.70
2019-04-30T09:31:59.540Z,15.75
2019-04-30T09:34:29.317Z,15.80
2019-04-30T09:36:59.325Z,15.82
2019-04-30T09:39:29.712Z,15.84
2019-04-30T09:42:00.826Z,15.84
2019-04-30T09:44:30.945Z,15.89
2019-04-30T09:47:00.743Z,15.93
2019-04-30T09:49:30.527Z,15.96
2019-04-30T09:52:00.691Z,16.01
2019-04-30T09:54:31.510Z,16.00
2019-04-30T09:57:09.107Z,16.03
2019-04-30T09:59:38.807Z,16.05
2019-04-30T10:02:09.273Z,16.08
2019-04-30T10:04:39.787Z,16.13
2019-04-30T10:07:09.776Z,16.18
2019-04-30T10:09:39.169Z,16.25
2019-04-30T10:12:15.551Z,16.24
2019-04-30T10:14:44.996Z,16.27
2019-04-30T10:17:24.137Z,16.28
2019-04-30T10:19:53.528Z,16.33
2019-04-30T10:22:22.903Z,16.39
2019-04-30T10:24:53.905Z,16.63
2019-04-30T10:27:23.781Z,16.49
2019-04-30T10:29:53.163Z,16.51
2019-04-30T10:32:22.611Z,16.56
2019-04-30T10:34:51.989Z,16.53
2019-04-30T10:37:38.775Z,16.51
2019-04-30T10:40:10.284Z,16.53
2019-04-30T10:42:39.878Z,16.54
2019-04-30T10:45:09.948Z,16.62
2019-04-30T10:47:39.527Z,16.60
2019-04-30T10:50:09.893Z,16.60
2019-04-30T10:52:39.534Z,16.59
2019-04-30T10:55:09.351Z,16.69
2019-04-30T10:57:39.637Z,16.72
2019-04-30T11:00:12.639Z,16.84
2019-04-30T11:02:42.087Z,16.71
2019-04-30T11:05:12.533Z,16.73
2019-04-30T11:07:42.253Z,16.77
2019-04-30T11:10:11.778Z,16.79
2019-04-30T11:12:41.224Z,16.83
2019-04-30T11:15:11.262Z,16.84
2019-04-30T11:17:40.846Z,17.79
2019-04-30T11:20:10.853Z,18.42
2019-04-30T11:22:40.592Z,17.50
2019-04-30T11:25:10.493Z,17.17
2019-04-30T11:27:41.363Z,17.11
2019-04-30T11:30:20.479Z,17.10
2019-04-30T11:32:46.015Z,17.11
2019-04-30T11:35:18.446Z,17.46
2019-04-30T11:37:47.531Z,19.25
2019-04-30T11:40:31.136Z,19.28
2019-04-30T11:42:51.421Z,18.38
2019-04-30T11:45:22.547Z,18.18
2019-04-30T11:47:54.089Z,18.67
2019-04-30T11:50:23.534Z,18.95
2019-04-30T11:52:52.950Z,18.56
2019-04-30T11:55:22.353Z,18.17
2019-04-30T11:57:51.780Z,18.39
2019-04-30T12:00:29.552Z,20.45
2019-04-30T12:02:59.354Z,19.10
2019-04-30T12:05:29.076Z,21.46
2019-04-30T12:08:26.389Z,21.32
2019-04-30T12:11:04.719Z,22.32
2019-04-30T12:13:34.244Z,21.99
2019-04-30T12:16:04.077Z,19.92
2019-04-30T12:18:33.432Z,19.44
2019-04-30T12:21:02.903Z,19.54
2019-04-30T12:23:32.341Z,19.62
2019-04-30T12:26:03.001Z,19.62
2019-04-30T12:28:32.678Z,19.29
2019-04-30T12:31:02.182Z,19.22
2019-04-30T12:33:31.723Z,19.21
2019-04-30T12:36:01.595Z,19.11
2019-04-30T12:38:30.992Z,19.01
2019-04-30T12:41:00.460Z,18.96
2019-04-30T12:43:29.917Z,19.24
2019-04-30T12:46:04.920Z,19.49
2019-04-30T12:48:55.994Z,19.20
2019-04-30T12:51:45.606Z,19.08
2019-04-30T12:54:17.813Z,18.85
2019-04-30T12:57:04.307Z,19.00
2019-04-30T12:59:33.866Z,19.57
2019-04-30T13:02:03.457Z,19.51
2019-04-30T13:04:32.970Z,19.24
2019-04-30T13:07:03.221Z,19.08
2019-04-30T13:09:33.819Z,19.02
2019-04-30T13:12:04.324Z,18.91
2019-04-30T13:14:36.961Z,18.89
2019-04-30T13:17:07.342Z,18.82
2019-04-30T13:19:36.601Z,19.31
2019-04-30T13:22:06.104Z,19.15
2019-04-30T13:24:35.693Z,18.87
2019-04-30T13:27:05.280Z,18.92
2019-04-30T13:29:41.679Z,18.82
2019-04-30T13:32:11.155Z,18.78
2019-04-30T13:34:51.169Z,18.71
2019-04-30T13:37:20.677Z,18.69
2019-04-30T13:40:07.910Z,18.54
2019-04-30T13:42:40.819Z,18.60
2019-04-30T13:45:10.448Z,18.66
2019-04-30T13:47:39.973Z,18.65
2019-04-30T13:50:09.592Z,18.62
2019-04-30T13:52:39.211Z,18.58
2019-04-30T13:55:10.692Z,18.53
2019-04-30T13:57:39.922Z,18.70
2019-04-30T14:00:11.613Z,18.75
2019-04-30T14:02:44.972Z,18.69
2019-04-30T14:05:15.754Z,18.62
2019-04-30T14:07:55.907Z,18.58
2019-04-30T14:10:25.445Z,18.54
2019-04-30T14:12:57.925Z,18.61
2019-04-30T14:15:29.224Z,18.57
2019-04-30T14:17:59.695Z,18.61
2019-04-30T14:20:29.358Z,18.47
2019-04-30T14:22:58.829Z,18.61
2019-04-30T14:25:28.663Z,18.51
2019-04-30T14:27:59.289Z,18.63
2019-04-30T14:30:29.288Z,18.75
2019-04-30T14:32:59.425Z,18.69
2019-04-30T14:35:31.006Z,18.70
2019-04-30T14:38:00.791Z,18.78
2019-04-30T14:40:31.065Z,18.84
2019-04-30T14:43:12.757Z,18.74
2019-04-30T14:46:01.703Z,18.76
2019-04-30T14:48:39.933Z,18.82
2019-04-30T14:51:08.338Z,18.76
2019-04-30T14:53:51.381Z,18.76
2019-04-30T14:56:29.794Z,18.73
2019-04-30T14:59:24.093Z,18.78
2019-04-30T15:02:01.166Z,18.75
2019-04-30T15:04:30.685Z,18.76
2019-04-30T15:07:00.244Z,18.65
2019-04-30T15:09:29.723Z,18.63
2019-04-30T15:11:59.173Z,18.69
2019-04-30T15:14:28.608Z,18.98
2019-04-30T15:16:58.135Z,18.90
2019-04-30T15:19:27.733Z,18.81
2019-04-30T15:22:00.438Z,18.78
2019-04-30T15:24:34.292Z,18.79
2019-04-30T15:27:03.971Z,19.25
2019-04-30T15:29:33.418Z,19.34
2019-04-30T15:32:02.947Z,19.12
2019-04-30T15:34:32.343Z,18.95
2019-04-30T15:37:01.817Z,18.69
2019-04-30T15:39:39.502Z,18.57
2019-04-30T15:42:09.313Z,18.71
2019-04-30T15:44:40.645Z,18.77
2019-04-30T15:47:10.154Z,18.75
2019-04-30T15:49:39.796Z,19.73
2019-04-30T15:52:11.013Z,20.70
2019-04-30T15:54:41.075Z,20.62
2019-04-30T15:57:10.605Z,21.21
2019-04-30T15:59:44.075Z,21.28
2019-04-30T16:02:38.841Z,20.95
2019-04-30T16:05:39.768Z,21.49
2019-04-30T16:08:43.321Z,21.53
2019-04-30T16:11:19.535Z,21.35
2019-04-30T16:14:20.445Z,20.09
2019-04-30T16:16:57.277Z,20.59
2019-04-30T16:19:28.716Z,21.13
2019-04-30T16:21:58.066Z,21.12
2019-04-30T16:24:28.716Z,20.80
2019-04-30T16:26:59.328Z,20.52
2019-04-30T16:29:29.085Z,20.23
2019-04-30T16:31:59.202Z,20.87
2019-04-30T16:34:30.467Z,19.87
2019-04-30T16:37:00.188Z,20.08
2019-04-30T16:39:29.646Z,19.59
2019-04-30T16:41:59.332Z,20.23
2019-04-30T16:44:28.757Z,20.43
2019-04-30T16:46:59.633Z,20.54
2019-04-30T16:49:29.322Z,20.78
2019-04-30T16:52:01.452Z,20.38
2019-04-30T16:54:30.048Z,20.21
2019-04-30T16:57:04.110Z,19.90
2019-04-30T16:59:50.092Z,19.50
2019-04-30T17:02:21.554Z,20.32
2019-04-30T17:05:01.694Z,20.43
2019-04-30T17:07:50.632Z,20.55
2019-04-30T17:10:42.560Z,20.32
2019-04-30T17:13:26.308Z,20.09
2019-04-30T17:15:59.545Z,19.86
2019-04-30T17:18:29.758Z,19.81
2019-04-30T17:20:59.496Z,19.77
2019-04-30T17:23:29.371Z,19.74
2019-04-30T17:25:59.273Z,19.69
2019-04-30T17:28:28.676Z,19.60
2019-04-30T17:30:58.923Z,19.58
2019-04-30T17:33:28.446Z,19.54
2019-04-30T17:35:57.988Z,19.43
2019-04-30T17:38:27.385Z,19.40
2019-04-30T17:40:56.784Z,19.34
2019-04-30T17:43:26.175Z,19.30
2019-04-30T17:45:55.646Z,19.21
2019-04-30T17:48:25.037Z,18.99
2019-04-30T17:50:54.399Z,18.68
2019-04-30T17:53:23.959Z,18.76
2019-04-30T17:55:53.481Z,18.60
2019-04-30T17:58:22.823Z,18.08
2019-04-30T18:00:55.060Z,17.83
2019-04-30T18:03:24.496Z,17.57
2019-04-30T18:05:54.269Z,17.46
2019-04-30T18:08:23.727Z,17.34
2019-04-30T18:10:53.182Z,17.11
2019-04-30T18:13:22.776Z,16.93
2019-04-30T18:15:52.266Z,17.16
2019-04-30T18:18:27.293Z,16.72
2019-04-30T18:21:19.060Z,16.78
2019-04-30T18:24:08.553Z,16.50
2019-04-30T18:26:42.999Z,16.60
2019-04-30T18:29:12.404Z,16.54
2019-04-30T18:31:41.789Z,16.49
2019-04-30T18:34:11.320Z,16.17
2019-04-30T18:36:40.683Z,16.44
2019-04-30T18:39:10.100Z,16.09
2019-04-30T18:41:40.205Z,15.94
2019-04-30T18:44:09.636Z,15.89
2019-04-30T18:46:39.147Z,15.42
2019-04-30T18:49:10.340Z,15.44
2019-04-30T18:51:42.728Z,15.41
2019-04-30T18:54:10.915Z,15.44
2019-04-30T18:56:40.284Z,15.71
2019-04-30T18:59:09.981Z,15.51
2019-04-30T19:01:39.347Z,15.48
2019-04-30T19:04:09.175Z,15.22
2019-04-30T19:06:38.676Z,15.18
2019-04-30T19:09:29.499Z,15.24
2019-04-30T19:12:11.220Z,15.01
2019-04-30T19:14:49.486Z,14.96
2019-04-30T19:17:34.358Z,15.11
2019-04-30T19:20:21.552Z,15.14
2019-04-30T19:22:51.084Z,14.95
2019-04-30T19:25:20.546Z,15.04
2019-04-30T19:27:49.943Z,15.18
2019-04-30T19:30:19.591Z,15.00
2019-04-30T19:32:49.246Z,14.98
2019-04-30T19:35:18.826Z,15.13
2019-04-30T19:37:48.762Z,15.24
2019-04-30T19:40:19.032Z,15.31
2019-04-30T19:42:50.848Z,15.41
2019-04-30T19:45:20.051Z,15.52
2019-04-30T19:47:49.529Z,15.70
2019-04-30T19:50:19.314Z,15.78
2019-04-30T19:52:48.793Z,15.58
2019-04-30T19:55:20.440Z,15.45
2019-04-30T19:57:51.086Z,15.56
2019-04-30T20:00:21.271Z,15.57
2019-04-30T20:02:50.711Z,15.64
2019-04-30T20:05:20.148Z,15.49
2019-04-30T20:07:49.542Z,15.35
2019-04-30T20:10:19.556Z,15.36
2019-04-30T20:12:49.786Z,15.11
2019-04-30T20:15:22.191Z,15.04
2019-04-30T20:17:50.382Z,15.24
2019-04-30T20:20:19.811Z,15.28
2019-04-30T20:22:51.869Z,15.07
2019-04-30T20:25:20.255Z,14.90
2019-04-30T20:27:49.665Z,14.84
2019-04-30T20:30:19.535Z,14.88
2019-04-30T20:32:51.194Z,14.96
2019-04-30T20:35:20.198Z,14.94
2019-04-30T20:38:09.395Z,15.00
2019-04-30T20:40:43.602Z,15.01
2019-04-30T20:43:11.206Z,15.02
2019-04-30T20:45:40.564Z,15.11
2019-04-30T20:48:09.939Z,15.10
2019-04-30T20:50:39.279Z,15.13
2019-04-30T20:53:08.895Z,15.12
2019-04-30T20:55:38.811Z,15.13
2019-04-30T20:58:09.642Z,15.11
2019-04-30T21:00:39.085Z,15.04
2019-04-30T21:03:09.696Z,14.97
2019-04-30T21:05:39.340Z,14.87
2019-04-30T21:08:08.768Z,14.78
2019-04-30T21:10:39.660Z,14.66
2019-04-30T21:13:11.147Z,14.64
2019-04-30T21:15:40.357Z,14.46
2019-04-30T21:18:09.707Z,14.31
2019-04-30T21:20:39.068Z,14.23
2019-04-30T21:23:09.437Z,14.28
2019-04-30T21:25:38.958Z,14.37
2019-04-30T21:28:09.733Z,14.32
2019-04-30T21:30:39.231Z,14.18
2019-04-30T21:33:19.359Z,14.22
2019-04-30T21:35:54.661Z,14.03
2019-04-30T21:38:24.051Z,13.99
2019-04-30T21:40:53.510Z,14.04
2019-04-30T21:43:22.884Z,14.14
2019-04-30T21:45:52.223Z,14.00
2019-04-30T21:48:21.579Z,13.92
2019-04-30T21:50:50.936Z,13.97
2019-04-30T21:53:20.298Z,13.91
2019-04-30T21:55:49.834Z,13.85
2019-04-30T21:58:20.366Z,13.85
2019-04-30T22:01:18.676Z,13.84
2019-04-30T22:03:48.262Z,13.75
2019-04-30T22:06:19.474Z,13.73
2019-04-30T22:08:49.026Z,13.88
2019-04-30T22:11:19.766Z,13.98
2019-04-30T22:13:49.527Z,14.05
2019-04-30T22:16:20.428Z,14.11
2019-04-30T22:18:50.376Z,14.05
2019-04-30T22:21:19.742Z,13.90
2019-04-30T22:23:49.095Z,13.76
2019-04-30T22:26:18.465Z,13.75
2019-04-30T22:28:49.395Z,13.59
2019-04-30T22:31:19.794Z,13.52
2019-04-30T22:33:49.524Z,13.52
2019-04-30T22:36:28.998Z,13.63
2019-04-30T22:39:12.002Z,13.40
2019-04-30T22:41:41.532Z,12.60
2019-04-30T22:44:10.956Z,12.77
2019-04-30T22:46:40.320Z,12.67
2019-04-30T22:49:09.837Z,12.60
2019-04-30T22:51:39.642Z,12.87
2019-04-30T22:54:08.995Z,12.93
2019-04-30T22:56:38.485Z,12.62
2019-04-30T22:59:07.804Z,12.54
2019-04-30T23:01:55.245Z,12.92
2019-04-30T23:04:34.565Z,12.62
2019-04-30T23:07:03.998Z,12.95
2019-04-30T23:09:33.363Z,12.74
2019-04-30T23:12:03.328Z,13.05
2019-04-30T23:14:32.760Z,12.65
2019-04-30T23:17:02.205Z,12.98
2019-04-30T23:19:31.641Z,13.11
2019-04-30T23:22:01.668Z,13.01
2019-04-30T23:24:31.042Z,13.26
2019-04-30T23:27:00.430Z,13.13
2019-04-30T23:29:29.882Z,13.18
2019-04-30T23:31:59.330Z,13.16
2019-04-30T23:34:28.712Z,12.94
2019-04-30T23:36:58.075Z,12.67
2019-04-30T23:39:27.419Z,12.86
2019-04-30T23:41:56.877Z,12.99
2019-04-30T23:44:26.229Z,12.75
2019-04-30T23:46:55.591Z,12.61
2019-04-30T23:49:25.111Z,11.96
2019-04-30T23:51:54.549Z,11.56
2019-04-30T23:54:23.921Z,12.22
2019-04-30T23:56:53.289Z,12.66
2019-04-30T23:59:22.652Z,12.84
